sensor_id;sensor_type;location;lat;lon;timestamp;pressure;altitude;pressure_sealevel;temperature;humidity
72226;BME280;60130;52.250;5.048;2022-07-25T00:00:00;1011.5;;;23.4;67.0
72226;BME280;60130;52.250;5.048;2022-07-25T00:05:00;1011.4;;;23.3;67.4
72226;BME280;60130;52.250;5.048;2022-07-25T00:10:00;1011.3;;;23.3;67.4
72226;BME280;60130;52.250;5.048;2022-07-25T00:15:00;1011.3;;;23.2;68.0
72226;BME280;60130;52.250;5.048;2022-07-25T00:20:00;1011.5;;;22.8;70.4
72226;BME280;60130;52.250;5.048;2022-07-25T00:25:00;1011.6;;;22.8;69.9
72226;BME280;60130;52.250;5.048;2022-07-25T00:30:00;1011.5;;;22.8;69.9
72226;BME280;60130;52.250;5.048;2022-07-25T00:35:00;1011.5;;;22.8;69.8
72226;BME280;60130;52.250;5.048;2022-07-25T00:40:00;1011.4;;;22.8;69.5
72226;BME280;60130;52.250;5.048;2022-07-25T00:45:00;1011.2;;;22.8;69.6
72226;BME280;60130;52.250;5.048;2022-07-25T00:50:00;1011.1;;;22.6;70.3
72226;BME280;60130;52.250;5.048;2022-07-25T00:55:00;1011.2;;;22.5;70.4
72226;BME280;60130;52.250;5.048;2022-07-25T01:00:00;1011.1;;;22.3;71.2
72226;BME280;60130;52.250;5.048;2022-07-25T01:05:00;1011.1;;;22.2;72.1
72226;BME280;60130;52.250;5.048;2022-07-25T01:10:00;1011.0;;;22.2;72.2
72226;BME280;60130;52.250;5.048;2022-07-25T01:15:00;1011.0;;;22.0;72.9
72226;BME280;60130;52.250;5.048;2022-07-25T01:20:00;1010.9;;;22.0;73.5
72226;BME280;60130;52.250;5.048;2022-07-25T01:25:00;1010.8;;;21.9;73.7
72226;BME280;60130;52.250;5.048;2022-07-25T01:30:00;1010.8;;;21.7;74.5
72226;BME280;60130;52.250;5.048;2022-07-25T01:35:00;1010.8;;;21.7;74.3
72226;BME280;60130;52.250;5.048;2022-07-25T01:40:00;1010.8;;;21.7;74.7
72226;BME280;60130;52.250;5.048;2022-07-25T01:45:00;1010.7;;;21.6;74.7
72226;BME280;60130;52.250;5.048;2022-07-25T01:50:00;1010.6;;;21.5;74.9
72226;BME280;60130;52.250;5.048;2022-07-25T01:55:00;1010.3;;;21.4;75.7
72226;BME280;60130;52.250;5.048;2022-07-25T02:00:00;1010.3;;;21.2;75.8
72226;BME280;60130;52.250;5.048;2022-07-25T02:05:00;1010.2;;;21.1;76.0
72226;BME280;60130;52.250;5.048;2022-07-25T02:10:00;1010.2;;;21.0;76.7
72226;BME280;60130;52.250;5.048;2022-07-25T02:15:00;1010.2;;;20.9;76.9
72226;BME280;60130;52.250;5.048;2022-07-25T02:20:00;1010.0;;;20.7;78.2
72226;BME280;60130;52.250;5.048;2022-07-25T02:25:00;1010.0;;;20.8;78.8
72226;BME280;60130;52.250;5.048;2022-07-25T02:30:00;1009.9;;;20.7;79.3
72226;BME280;60130;52.250;5.048;2022-07-25T02:35:00;1009.8;;;20.8;79.4
72226;BME280;60130;52.250;5.048;2022-07-25T02:40:00;1009.8;;;20.8;79.5
72226;BME280;60130;52.250;5.048;2022-07-25T02:45:00;1009.8;;;21.0;78.7
72226;BME280;60130;52.250;5.048;2022-07-25T02:50:00;1009.7;;;21.0;78.8
72226;BME280;60130;52.250;5.048;2022-07-25T02:55:00;1009.5;;;20.9;78.8
72226;BME280;60130;52.250;5.048;2022-07-25T03:00:00;1009.6;;;21.1;78.4
72226;BME280;60130;52.250;5.048;2022-07-25T03:05:00;1009.6;;;21.2;78.2
72226;BME280;60130;52.250;5.048;2022-07-25T03:10:00;1009.5;;;21.2;77.5
72226;BME280;60130;52.250;5.048;2022-07-25T03:15:00;1009.5;;;21.3;76.6
72226;BME280;60130;52.250;5.048;2022-07-25T03:20:00;1009.4;;;21.2;77.8
72226;BME280;60130;52.250;5.048;2022-07-25T03:25:00;1009.4;;;21.3;76.6
72226;BME280;60130;52.250;5.048;2022-07-25T03:30:00;1009.4;;;21.4;76.5
72226;BME280;60130;52.250;5.048;2022-07-25T03:35:00;1009.4;;;21.4;79.1
72226;BME280;60130;52.250;5.048;2022-07-25T03:40:00;1009.5;;;21.3;79.3
72226;BME280;60130;52.250;5.048;2022-07-25T03:45:00;1009.4;;;21.3;79.1
72226;BME280;60130;52.250;5.048;2022-07-25T03:50:00;1009.4;;;21.3;78.9
72226;BME280;60130;52.250;5.048;2022-07-25T03:55:00;1009.4;;;21.2;79.3
72226;BME280;60130;52.250;5.048;2022-07-25T04:00:00;1009.4;;;21.2;79.0
72226;BME280;60130;52.250;5.048;2022-07-25T04:05:00;1009.5;;;21.2;78.8
72226;BME280;60130;52.250;5.048;2022-07-25T04:10:00;1009.5;;;21.2;78.6
72226;BME280;60130;52.250;5.048;2022-07-25T04:15:00;1009.5;;;21.2;78.9
72226;BME280;60130;52.250;5.048;2022-07-25T04:20:00;1009.6;;;21.1;78.5
72226;BME280;60130;52.250;5.048;2022-07-25T04:25:00;1009.5;;;21.1;78.8
72226;BME280;60130;52.250;5.048;2022-07-25T04:30:00;1009.7;;;21.2;78.2
72226;BME280;60130;52.250;5.048;2022-07-25T04:35:00;1009.5;;;21.3;77.8
72226;BME280;60130;52.250;5.048;2022-07-25T04:40:00;1009.4;;;21.3;77.8
72226;BME280;60130;52.250;5.048;2022-07-25T04:45:00;1009.3;;;21.6;77.3
72226;BME280;60130;52.250;5.048;2022-07-25T04:50:00;1009.3;;;21.6;77.3
72226;BME280;60130;52.250;5.048;2022-07-25T04:55:00;1009.2;;;21.7;77.1
72226;BME280;60130;52.250;5.048;2022-07-25T05:00:00;1009.3;;;21.7;77.3
72226;BME280;60130;52.250;5.048;2022-07-25T05:05:00;1009.3;;;21.8;76.7
72226;BME280;60130;52.250;5.048;2022-07-25T05:10:00;1009.3;;;21.9;76.0
72226;BME280;60130;52.250;5.048;2022-07-25T05:15:00;1009.3;;;22.0;75.5
72226;BME280;60130;52.250;5.048;2022-07-25T05:20:00;1009.3;;;22.2;75.1
72226;BME280;60130;52.250;5.048;2022-07-25T05:25:00;1009.4;;;22.4;74.7
72226;BME280;60130;52.250;5.048;2022-07-25T05:30:00;1009.3;;;22.6;74.1
72226;BME280;60130;52.250;5.048;2022-07-25T05:35:00;1009.3;;;22.8;72.9
72226;BME280;60130;52.250;5.048;2022-07-25T05:40:00;1009.4;;;22.9;72.2
72226;BME280;60130;52.250;5.048;2022-07-25T05:45:00;1009.4;;;23.1;69.9
72226;BME280;60130;52.250;5.048;2022-07-25T05:50:00;1009.4;;;23.2;68.3
72226;BME280;60130;52.250;5.048;2022-07-25T05:55:00;1009.3;;;23.5;66.4
72226;BME280;60130;52.250;5.048;2022-07-25T06:00:00;1009.5;;;23.6;65.3
72226;BME280;60130;52.250;5.048;2022-07-25T06:05:00;1009.4;;;23.5;64.8
72226;BME280;60130;52.250;5.048;2022-07-25T06:10:00;1009.3;;;23.4;64.0
72226;BME280;60130;52.250;5.048;2022-07-25T06:15:00;1009.4;;;23.4;63.8
72226;BME280;60130;52.250;5.048;2022-07-25T06:20:00;1009.4;;;23.5;64.3
72226;BME280;60130;52.250;5.048;2022-07-25T06:25:00;1009.5;;;23.9;63.0
72226;BME280;60130;52.250;5.048;2022-07-25T06:30:02;1009.5;;;23.9;62.6
72226;BME280;60130;52.250;5.048;2022-07-25T06:35:00;1009.4;;;23.6;63.8
72226;BME280;60130;52.250;5.048;2022-07-25T06:40:00;1009.3;;;23.5;64.9
72226;BME280;60130;52.250;5.048;2022-07-25T06:45:02;1009.5;;;23.2;65.9
72226;BME280;60130;52.250;5.048;2022-07-25T06:50:00;1009.3;;;23.1;66.5
72226;BME280;60130;52.250;5.048;2022-07-25T06:55:00;1009.4;;;23.0;67.3
72226;BME280;60130;52.250;5.048;2022-07-25T07:00:00;1009.5;;;22.7;68.3
72226;BME280;60130;52.250;5.048;2022-07-25T07:05:00;1009.5;;;22.5;68.8
72226;BME280;60130;52.250;5.048;2022-07-25T07:10:00;1009.5;;;22.5;70.0
72226;BME280;60130;52.250;5.048;2022-07-25T07:15:00;1009.5;;;22.4;70.1
72226;BME280;60130;52.250;5.048;2022-07-25T07:20:00;1009.5;;;22.4;71.1
72226;BME280;60130;52.250;5.048;2022-07-25T07:25:00;1009.5;;;22.5;70.4
72226;BME280;60130;52.250;5.048;2022-07-25T07:30:00;1009.5;;;22.6;70.4
72226;BME280;60130;52.250;5.048;2022-07-25T07:35:00;1009.6;;;23.2;68.7
72226;BME280;60130;52.250;5.048;2022-07-25T07:40:00;1009.6;;;23.2;68.6
72226;BME280;60130;52.250;5.048;2022-07-25T07:45:00;1009.5;;;22.9;70.3
72226;BME280;60130;52.250;5.048;2022-07-25T07:50:00;1009.5;;;22.5;71.6
72226;BME280;60130;52.250;5.048;2022-07-25T07:55:00;1009.6;;;22.3;72.3
72226;BME280;60130;52.250;5.048;2022-07-25T08:00:00;1009.6;;;22.5;72.2
72226;BME280;60130;52.250;5.048;2022-07-25T08:05:00;1009.7;;;22.8;71.3
72226;BME280;60130;52.250;5.048;2022-07-25T08:10:00;1009.7;;;22.5;73.7
72226;BME280;60130;52.250;5.048;2022-07-25T08:15:00;1009.7;;;22.4;74.4
72226;BME280;60130;52.250;5.048;2022-07-25T08:20:01;1009.5;;;22.7;72.9
72226;BME280;60130;52.250;5.048;2022-07-25T08:25:00;1009.6;;;23.1;72.4
72226;BME280;60130;52.250;5.048;2022-07-25T08:30:00;1009.6;;;23.5;70.4
72226;BME280;60130;52.250;5.048;2022-07-25T08:35:00;1009.5;;;23.9;69.1
72226;BME280;60130;52.250;5.048;2022-07-25T08:40:00;1009.4;;;24.0;68.6
72226;BME280;60130;52.250;5.048;2022-07-25T08:45:03;1009.6;;;23.6;69.5
72226;BME280;60130;52.250;5.048;2022-07-25T08:50:02;1009.7;;;23.6;68.3
72226;BME280;60130;52.250;5.048;2022-07-25T08:55:00;1009.7;;;23.4;68.6
72226;BME280;60130;52.250;5.048;2022-07-25T09:00:00;1009.8;;;23.6;69.6
72226;BME280;60130;52.250;5.048;2022-07-25T09:05:00;1009.8;;;23.8;68.9
72226;BME280;60130;52.250;5.048;2022-07-25T09:10:10;1009.8;;;24.1;67.0
72226;BME280;60130;52.250;5.048;2022-07-25T09:15:00;1009.8;;;24.4;64.8
72226;BME280;60130;52.250;5.048;2022-07-25T09:20:00;1009.7;;;24.8;63.9
72226;BME280;60130;52.250;5.048;2022-07-25T09:25:00;1009.7;;;24.9;62.4
72226;BME280;60130;52.250;5.048;2022-07-25T09:30:00;1009.8;;;25.0;62.0
72226;BME280;60130;52.250;5.048;2022-07-25T09:35:00;1009.7;;;25.3;62.3
72226;BME280;60130;52.250;5.048;2022-07-25T09:40:00;1009.8;;;24.6;63.1
72226;BME280;60130;52.250;5.048;2022-07-25T09:45:03;1009.8;;;24.3;64.6
72226;BME280;60130;52.250;5.048;2022-07-25T09:50:01;1010.0;;;23.7;65.8
72226;BME280;60130;52.250;5.048;2022-07-25T09:55:02;1010.0;;;23.6;66.0
72226;BME280;60130;52.250;5.048;2022-07-25T10:00:00;1010.2;;;23.7;65.5
72226;BME280;60130;52.250;5.048;2022-07-25T10:05:07;1010.1;;;23.5;66.8
72226;BME280;60130;52.250;5.048;2022-07-25T10:10:00;1010.2;;;23.3;66.5
72226;BME280;60130;52.250;5.048;2022-07-25T10:15:05;1010.3;;;23.8;65.1
72226;BME280;60130;52.250;5.048;2022-07-25T10:20:00;1010.3;;;24.0;63.9
72226;BME280;60130;52.250;5.048;2022-07-25T10:25:08;1010.2;;;24.5;62.9
72226;BME280;60130;52.250;5.048;2022-07-25T10:30:00;1010.3;;;25.0;62.4
72226;BME280;60130;52.250;5.048;2022-07-25T10:35:11;1010.4;;;24.4;62.1
72226;BME280;60130;52.250;5.048;2022-07-25T10:40:00;1010.4;;;24.2;63.1
72226;BME280;60130;52.250;5.048;2022-07-25T10:45:01;1010.5;;;23.9;63.0
72226;BME280;60130;52.250;5.048;2022-07-25T10:50:00;1010.5;;;23.7;63.8
72226;BME280;60130;52.250;5.048;2022-07-25T10:55:00;1010.6;;;23.6;63.0
72226;BME280;60130;52.250;5.048;2022-07-25T11:00:04;1010.6;;;23.6;62.5
72226;BME280;60130;52.250;5.048;2022-07-25T11:05:02;1010.6;;;23.9;61.9
72226;BME280;60130;52.250;5.048;2022-07-25T11:10:02;1010.6;;;23.5;61.8
72226;BME280;60130;52.250;5.048;2022-07-25T11:15:02;1010.6;;;23.2;63.6
72226;BME280;60130;52.250;5.048;2022-07-25T11:20:02;1010.7;;;23.3;63.8
72226;BME280;60130;52.250;5.048;2022-07-25T11:25:01;1010.8;;;23.4;63.7
72226;BME280;60130;52.250;5.048;2022-07-25T11:30:08;1010.7;;;23.1;62.7
72226;BME280;60130;52.250;5.048;2022-07-25T11:35:00;1010.8;;;23.0;64.4
72226;BME280;60130;52.250;5.048;2022-07-25T11:40:00;1010.8;;;23.4;62.7
72226;BME280;60130;52.250;5.048;2022-07-25T11:45:00;1010.8;;;24.0;60.8
72226;BME280;60130;52.250;5.048;2022-07-25T11:50:02;1010.8;;;24.1;60.3
72226;BME280;60130;52.250;5.048;2022-07-25T11:55:01;1010.8;;;24.3;59.1
72226;BME280;60130;52.250;5.048;2022-07-25T12:00:02;1011.0;;;24.4;58.6
72226;BME280;60130;52.250;5.048;2022-07-25T12:05:01;1011.0;;;24.3;57.4
72226;BME280;60130;52.250;5.048;2022-07-25T12:10:00;1011.0;;;25.1;58.1
72226;BME280;60130;52.250;5.048;2022-07-25T12:15:00;1011.0;;;24.2;57.7
72226;BME280;60130;52.250;5.048;2022-07-25T12:20:00;1011.0;;;23.9;56.9
72226;BME280;60130;52.250;5.048;2022-07-25T12:25:00;1011.0;;;24.2;53.6
72226;BME280;60130;52.250;5.048;2022-07-25T12:30:00;1011.0;;;25.0;53.4
72226;BME280;60130;52.250;5.048;2022-07-25T12:35:00;1010.9;;;25.2;50.5
72226;BME280;60130;52.250;5.048;2022-07-25T12:40:00;1011.0;;;25.6;50.5
72226;BME280;60130;52.250;5.048;2022-07-25T12:45:00;1010.9;;;25.8;49.5
72226;BME280;60130;52.250;5.048;2022-07-25T12:50:00;1011.0;;;26.1;48.4
72226;BME280;60130;52.250;5.048;2022-07-25T12:55:00;1011.0;;;25.5;47.7
72226;BME280;60130;52.250;5.048;2022-07-25T13:00:00;1011.0;;;24.6;51.7
72226;BME280;60130;52.250;5.048;2022-07-25T13:05:00;1011.0;;;24.9;49.3
72226;BME280;60130;52.250;5.048;2022-07-25T13:10:00;1011.0;;;25.2;49.4
72226;BME280;60130;52.250;5.048;2022-07-25T13:15:00;1011.0;;;24.8;49.7
72226;BME280;60130;52.250;5.048;2022-07-25T13:20:00;1011.0;;;24.4;50.1
72226;BME280;60130;52.250;5.048;2022-07-25T13:25:00;1011.0;;;25.2;49.0
72226;BME280;60130;52.250;5.048;2022-07-25T13:30:00;1011.1;;;24.2;50.4
72226;BME280;60130;52.250;5.048;2022-07-25T13:35:00;1011.1;;;23.8;50.4
72226;BME280;60130;52.250;5.048;2022-07-25T13:40:00;1011.1;;;24.3;50.5
72226;BME280;60130;52.250;5.048;2022-07-25T13:45:00;1011.2;;;24.7;50.0
72226;BME280;60130;52.250;5.048;2022-07-25T13:50:00;1011.1;;;24.2;49.0
72226;BME280;60130;52.250;5.048;2022-07-25T13:55:00;1011.2;;;24.1;49.6
72226;BME280;60130;52.250;5.048;2022-07-25T14:00:00;1011.2;;;24.2;51.2
72226;BME280;60130;52.250;5.048;2022-07-25T14:05:00;1011.3;;;24.3;50.6
72226;BME280;60130;52.250;5.048;2022-07-25T14:10:00;1011.3;;;24.7;49.2
72226;BME280;60130;52.250;5.048;2022-07-25T14:15:00;1011.2;;;24.6;49.2
72226;BME280;60130;52.250;5.048;2022-07-25T14:20:00;1011.3;;;24.1;50.2
72226;BME280;60130;52.250;5.048;2022-07-25T14:25:00;1011.3;;;23.9;51.0
72226;BME280;60130;52.250;5.048;2022-07-25T14:30:00;1011.4;;;24.7;49.8
72226;BME280;60130;52.250;5.048;2022-07-25T14:35:00;1011.4;;;24.7;50.7
72226;BME280;60130;52.250;5.048;2022-07-25T14:40:00;1011.4;;;24.6;50.7
72226;BME280;60130;52.250;5.048;2022-07-25T14:45:00;1011.4;;;24.1;52.8
72226;BME280;60130;52.250;5.048;2022-07-25T14:50:00;1011.5;;;24.0;53.1
72226;BME280;60130;52.250;5.048;2022-07-25T14:55:00;1011.4;;;23.9;52.3
72226;BME280;60130;52.250;5.048;2022-07-25T15:00:00;1011.4;;;24.0;52.0
72226;BME280;60130;52.250;5.048;2022-07-25T15:05:00;1011.5;;;23.9;51.0
72226;BME280;60130;52.250;5.048;2022-07-25T15:10:00;1011.4;;;23.7;53.5
72226;BME280;60130;52.250;5.048;2022-07-25T15:15:00;1011.4;;;23.7;53.1
72226;BME280;60130;52.250;5.048;2022-07-25T15:20:00;1011.4;;;23.5;52.4
72226;BME280;60130;52.250;5.048;2022-07-25T15:25:00;1011.5;;;23.9;51.5
72226;BME280;60130;52.250;5.048;2022-07-25T15:30:00;1011.5;;;24.2;52.0
72226;BME280;60130;52.250;5.048;2022-07-25T15:35:00;1011.4;;;24.5;51.4
72226;BME280;60130;52.250;5.048;2022-07-25T15:40:00;1011.6;;;24.1;52.7
72226;BME280;60130;52.250;5.048;2022-07-25T15:45:00;1011.7;;;24.0;52.0
72226;BME280;60130;52.250;5.048;2022-07-25T15:50:01;1011.8;;;23.7;52.3
72226;BME280;60130;52.250;5.048;2022-07-25T15:55:00;1011.7;;;23.3;54.3
72226;BME280;60130;52.250;5.048;2022-07-25T16:00:00;1011.6;;;23.4;55.3
72226;BME280;60130;52.250;5.048;2022-07-25T16:05:00;1011.7;;;23.2;55.7
72226;BME280;60130;52.250;5.048;2022-07-25T16:10:00;1011.7;;;23.4;56.8
72226;BME280;60130;52.250;5.048;2022-07-25T16:15:00;1011.7;;;23.9;55.4
72226;BME280;60130;52.250;5.048;2022-07-25T16:20:00;1011.7;;;24.0;54.7
72226;BME280;60130;52.250;5.048;2022-07-25T16:25:00;1011.8;;;23.5;56.5
72226;BME280;60130;52.250;5.048;2022-07-25T16:30:00;1011.8;;;23.0;57.7
72226;BME280;60130;52.250;5.048;2022-07-25T16:35:00;1011.9;;;23.4;58.7
72226;BME280;60130;52.250;5.048;2022-07-25T16:40:00;1011.9;;;23.4;59.0
72226;BME280;60130;52.250;5.048;2022-07-25T16:45:00;1011.8;;;23.6;58.2
72226;BME280;60130;52.250;5.048;2022-07-25T16:50:00;1011.9;;;23.0;59.3
72226;BME280;60130;52.250;5.048;2022-07-25T16:55:00;1011.9;;;22.9;60.5
72226;BME280;60130;52.250;5.048;2022-07-25T17:00:00;1011.9;;;22.6;61.2
72226;BME280;60130;52.250;5.048;2022-07-25T17:05:00;1012.0;;;22.2;62.3
72226;BME280;60130;52.250;5.048;2022-07-25T17:10:00;1012.1;;;22.0;64.1
72226;BME280;60130;52.250;5.048;2022-07-25T17:15:00;1012.1;;;22.0;65.3
72226;BME280;60130;52.250;5.048;2022-07-25T17:20:00;1012.1;;;21.7;65.3
72226;BME280;60130;52.250;5.048;2022-07-25T17:25:00;1012.2;;;21.7;66.0
72226;BME280;60130;52.250;5.048;2022-07-25T17:30:00;1012.2;;;21.7;66.8
72226;BME280;60130;52.250;5.048;2022-07-25T17:35:00;1012.2;;;21.5;67.5
72226;BME280;60130;52.250;5.048;2022-07-25T17:40:00;1012.3;;;21.6;67.8
72226;BME280;60130;52.250;5.048;2022-07-25T17:45:00;1012.3;;;21.4;67.6
72226;BME280;60130;52.250;5.048;2022-07-25T17:50:00;1012.2;;;21.3;67.6
72226;BME280;60130;52.250;5.048;2022-07-25T17:55:00;1012.3;;;21.2;67.4
72226;BME280;60130;52.250;5.048;2022-07-25T18:00:00;1012.4;;;21.2;68.1
72226;BME280;60130;52.250;5.048;2022-07-25T18:05:00;1012.4;;;21.2;67.9
72226;BME280;60130;52.250;5.048;2022-07-25T18:10:00;1012.4;;;21.3;68.2
72226;BME280;60130;52.250;5.048;2022-07-25T18:15:00;1012.4;;;21.3;67.4
72226;BME280;60130;52.250;5.048;2022-07-25T18:20:00;1012.3;;;21.1;67.8
72226;BME280;60130;52.250;5.048;2022-07-25T18:25:00;1012.4;;;21.1;68.6
72226;BME280;60130;52.250;5.048;2022-07-25T18:30:00;1012.4;;;21.1;69.0
72226;BME280;60130;52.250;5.048;2022-07-25T18:35:00;1012.5;;;21.0;68.7
72226;BME280;60130;52.250;5.048;2022-07-25T18:40:00;1012.5;;;21.0;68.4
72226;BME280;60130;52.250;5.048;2022-07-25T18:45:00;1012.5;;;21.0;68.9
72226;BME280;60130;52.250;5.048;2022-07-25T18:50:00;1012.6;;;21.0;69.2
72226;BME280;60130;52.250;5.048;2022-07-25T18:55:00;1012.6;;;20.9;69.2
72226;BME280;60130;52.250;5.048;2022-07-25T19:00:00;1012.7;;;20.8;69.3
72226;BME280;60130;52.250;5.048;2022-07-25T19:05:00;1012.7;;;20.7;69.9
72226;BME280;60130;52.250;5.048;2022-07-25T19:10:00;1012.7;;;20.7;70.2
72226;BME280;60130;52.250;5.048;2022-07-25T19:15:00;1012.7;;;20.7;70.0
72226;BME280;60130;52.250;5.048;2022-07-25T19:20:00;1012.7;;;20.7;70.4
72226;BME280;60130;52.250;5.048;2022-07-25T19:25:00;1012.7;;;20.6;70.4
72226;BME280;60130;52.250;5.048;2022-07-25T19:30:00;1012.8;;;20.6;70.6
72226;BME280;60130;52.250;5.048;2022-07-25T19:35:00;1012.8;;;20.6;70.7
72226;BME280;60130;52.250;5.048;2022-07-25T19:40:00;1012.9;;;20.5;71.0
72226;BME280;60130;52.250;5.048;2022-07-25T19:45:00;1013.0;;;20.5;71.1
72226;BME280;60130;52.250;5.048;2022-07-25T19:50:00;1013.0;;;20.5;71.3
72226;BME280;60130;52.250;5.048;2022-07-25T19:55:00;1013.0;;;20.4;71.7
72226;BME280;60130;52.250;5.048;2022-07-25T20:00:00;1013.2;;;20.4;72.0
72226;BME280;60130;52.250;5.048;2022-07-25T20:05:00;1013.2;;;20.2;72.7
72226;BME280;60130;52.250;5.048;2022-07-25T20:10:00;1013.2;;;20.1;73.3
72226;BME280;60130;52.250;5.048;2022-07-25T20:15:00;1013.2;;;19.9;73.7
72226;BME280;60130;52.250;5.048;2022-07-25T20:20:00;1013.2;;;19.9;74.3
72226;BME280;60130;52.250;5.048;2022-07-25T20:25:00;1013.3;;;19.8;74.5
72226;BME280;60130;52.250;5.048;2022-07-25T20:30:00;1013.2;;;19.8;75.0
72226;BME280;60130;52.250;5.048;2022-07-25T20:35:00;1013.2;;;19.7;75.4
72226;BME280;60130;52.250;5.048;2022-07-25T20:40:00;1013.2;;;19.6;75.7
72226;BME280;60130;52.250;5.048;2022-07-25T20:45:00;1013.3;;;19.6;75.9
72226;BME280;60130;52.250;5.048;2022-07-25T20:50:00;1013.3;;;19.5;76.3
72226;BME280;60130;52.250;5.048;2022-07-25T20:55:00;1013.3;;;19.5;76.6
72226;BME280;60130;52.250;5.048;2022-07-25T21:00:00;1013.3;;;19.4;76.8
72226;BME280;60130;52.250;5.048;2022-07-25T21:05:00;1013.3;;;19.4;77.0
72226;BME280;60130;52.250;5.048;2022-07-25T21:10:00;1013.3;;;19.4;77.5
72226;BME280;60130;52.250;5.048;2022-07-25T21:15:00;1013.4;;;19.3;78.1
72226;BME280;60130;52.250;5.048;2022-07-25T21:20:00;1013.4;;;19.3;78.2
72226;BME280;60130;52.250;5.048;2022-07-25T21:25:00;1013.4;;;19.3;78.9
72226;BME280;60130;52.250;5.048;2022-07-25T21:30:00;1013.4;;;19.2;79.4
72226;BME280;60130;52.250;5.048;2022-07-25T21:35:00;1013.5;;;19.3;79.4
72226;BME280;60130;52.250;5.048;2022-07-25T21:40:00;1013.5;;;19.3;79.4
72226;BME280;60130;52.250;5.048;2022-07-25T21:45:00;1013.5;;;19.3;79.8
72226;BME280;60130;52.250;5.048;2022-07-25T21:50:00;1013.5;;;19.3;79.8
72226;BME280;60130;52.250;5.048;2022-07-25T21:55:00;1013.5;;;19.3;79.9
72226;BME280;60130;52.250;5.048;2022-07-25T22:00:00;1013.5;;;19.3;80.0
72226;BME280;60130;52.250;5.048;2022-07-25T22:05:00;1013.5;;;19.4;79.9
72226;BME280;60130;52.250;5.048;2022-07-25T22:10:00;1013.5;;;19.4;80.3
72226;BME280;60130;52.250;5.048;2022-07-25T22:15:00;1013.5;;;19.4;80.3
72226;BME280;60130;52.250;5.048;2022-07-25T22:20:00;1013.6;;;19.5;80.0
72226;BME280;60130;52.250;5.048;2022-07-25T22:25:00;1013.6;;;19.6;80.0
72226;BME280;60130;52.250;5.048;2022-07-25T22:30:00;1013.7;;;19.6;79.9
72226;BME280;60130;52.250;5.048;2022-07-25T22:35:00;1013.6;;;19.6;80.1
72226;BME280;60130;52.250;5.048;2022-07-25T22:40:00;1013.7;;;19.7;79.6
72226;BME280;60130;52.250;5.048;2022-07-25T22:45:00;1013.6;;;19.7;79.6
72226;BME280;60130;52.250;5.048;2022-07-25T22:50:00;1013.7;;;19.9;79.2
72226;BME280;60130;52.250;5.048;2022-07-25T23:00:00;1013.7;;;19.9;79.4
72226;BME280;60130;52.250;5.048;2022-07-25T23:05:00;1013.7;;;19.9;79.8
72226;BME280;60130;52.250;5.048;2022-07-25T23:10:00;1013.7;;;19.9;80.0
72226;BME280;60130;52.250;5.048;2022-07-25T23:15:00;1013.8;;;19.8;80.2
72226;BME280;60130;52.250;5.048;2022-07-25T23:20:00;1013.7;;;19.7;80.7
72226;BME280;60130;52.250;5.048;2022-07-25T23:25:00;1013.8;;;19.6;80.9
72226;BME280;60130;52.250;5.048;2022-07-25T23:30:00;1013.8;;;19.6;81.1
72226;BME280;60130;52.250;5.048;2022-07-25T23:35:00;1013.8;;;19.6;81.1
72226;BME280;60130;52.250;5.048;2022-07-25T23:40:00;1013.8;;;19.5;81.5
72226;BME280;60130;52.250;5.048;2022-07-25T23:45:00;1013.8;;;19.5;81.4
72226;BME280;60130;52.250;5.048;2022-07-25T23:50:00;1013.8;;;19.4;81.8
72226;BME280;60130;52.250;5.048;2022-07-25T23:55:00;1013.9;;;19.4;82.1
